Latest Weather Observations for Creal Reef

IDQ60801

Issued at 7:52 am EST Tuesday 22 January 2019 (issued every 10 minutes, with the page automatically refreshed every 10 minutes)

About weather observations | Map of weather stations | Latest weather observations for QLD | Other Formats
Station Details ID: 200736 Name: CREAL REEF Lat: -20.53 Lon: 150.38 Height: 1.7 m
Data from the previous 72 hours. | See also: Recent months for locations in Queensland
Date/Time
EST
Temp
°C
App
Temp
°C
Dew
Point
°C
Rel
Hum
%
Delta-T
°C
Wind Press
QNH
hPa
Press
MSL
hPa
Rain since
9am
mm
Dir  Spd
km/h
Gust
km/h
Spd
kts
Gust
kts
22/07:30am 26.8 - - - - ESE 35 41 19 22 1012.4 - -
22/07:20am 26.9 - - - - ESE 37 - 20 - - 1012.2 -
22/07:00am 26.9 - - - - ESE 39 44 21 24 1012.2 - -
22/06:30am 26.7 - - - - ESE 37 43 20 23 1011.9 - -
22/06:20am 26.8 - - - - ESE 37 - 20 - - 1011.7 -
22/06:00am 26.6 - - - - ESE 37 41 20 22 1011.7 - -
22/05:30am 26.5 - - - - ESE 37 41 20 22 1011.5 - -
22/05:20am 26.6 - - - - ESE 35 - 19 - - 1011.2 -
22/05:00am 26.5 - - - - ESE 35 41 19 22 1011.2 - -
22/04:30am 26.5 - - - - ESE 33 41 18 22 1011.0 - -
22/04:20am 26.6 - - - - ESE 35 - 19 - - 1011.0 -
22/04:00am 26.5 - - - - ESE 35 39 19 21 1011.1 - -
22/03:30am 26.7 - - - - ESE 37 41 20 22 1011.2 - -
22/03:20am 26.6 - - - - ESE 35 - 19 - - 1011.2 -
22/03:00am 26.6 - - - - ESE 35 41 19 22 1011.3 - -
22/02:30am 26.8 - - - - ESE 35 41 19 22 1011.5 - -
22/02:20am 26.8 - - - - ESE 37 - 20 - - 1011.5 -
22/02:00am 26.5 - - - - ESE 26 35 14 19 1011.8 - -
22/01:30am 25.6 - - - - SE 32 43 17 23 1012.2 - -
22/01:20am 26.0 - - - - SE 30 - 16 - - 1012.1 -
22/01:00am 25.9 - - - - ESE 32 35 17 19 1012.5 - -
22/12:30am 25.9 - - - - ESE 43 50 23 27 1012.9 - -
22/12:20am 26.8 - - - - ESE 33 - 18 - - 1012.9 -
22/12:00am 26.8 - - - - ESE 32 35 17 19 1013.2 - -
 
Date/Time
EST
Temp
°C
App
Temp
°C
Dew
Point
°C
Rel
Hum
%
Delta-T
°C
Wind Press
QNH
hPa
Press
MSL
hPa
Rain since
9am
mm
Dir  Spd
km/h
Gust
km/h
Spd
kts
Gust
kts
21/11:30pm 26.8 - - - - ESE 32 37 17 20 1013.5 - -
21/11:20pm 27.0 - - - - ESE 30 - 16 - - 1013.5 -
21/11:00pm 27.0 - - - - ESE 32 39 17 21 1013.7 - -
21/10:30pm 27.1 - - - - ESE 32 35 17 19 1013.8 - -
21/10:20pm 27.1 - - - - ESE 32 - 17 - - 1013.7 -
21/10:00pm 27.1 - - - - ESE 33 39 18 21 1013.8 - -
21/09:30pm 27.0 - - - - ESE 33 41 18 22 1013.7 - -
21/09:20pm 27.0 - - - - ESE 33 - 18 - - 1013.5 -
21/09:00pm 27.0 - - - - ESE 35 39 19 21 1013.6 - -
21/08:30pm 27.0 - - - - ESE 35 39 19 21 1013.4 - -
21/08:20pm 27.0 - - - - ESE 33 - 18 - - 1013.2 -
21/08:00pm 27.0 - - - - ESE 35 41 19 22 1013.0 - -
21/07:30pm 27.0 - - - - SE 37 43 20 23 1012.8 - -
21/07:20pm 27.1 - - - - SE 37 - 20 - - 1012.5 -
21/07:00pm 27.1 - - - - SE 37 43 20 23 1012.3 - -
21/06:30pm 27.1 - - - - SE 39 43 21 23 1011.8 - -
21/06:20pm 27.1 - - - - SE 35 - 19 - - 1011.6 -
21/06:00pm 27.1 - - - - SE 35 43 19 23 1011.5 - -
21/05:30pm 27.1 - - - - SE 37 41 20 22 1011.1 - -
21/05:20pm 27.2 - - - - SE 37 - 20 - - 1010.8 -
21/05:00pm 27.2 - - - - SE 35 41 19 22 1010.8 - -
21/04:30pm 27.3 - - - - SE 35 41 19 22 1010.7 - -
21/04:20pm 27.2 - - - - SE 35 - 19 - - 1010.7 -
21/04:00pm 27.4 - - - - SE 35 41 19 22 1010.8 - -
21/03:30pm 27.2 - - - - SE 35 41 19 22 1010.8 - -
21/03:20pm 27.2 - - - - SE 37 - 20 - - 1010.8 -
21/03:00pm 27.2 - - - - SE 35 43 19 23 1010.9 - -
21/02:30pm 27.1 - - - - SE 37 43 20 23 1011.0 - -
21/02:20pm 27.2 - - - - SE 39 - 21 - - 1010.8 -
21/02:00pm 27.1 - - - - SE 37 43 20 23 1011.0 - -
21/01:30pm 27.1 - - - - SE 39 44 21 24 1011.3 - -
21/01:20pm 27.2 - - - - SE 39 - 21 - - 1011.3 -
21/01:00pm 27.1 - - - - SE 39 44 21 24 1011.4 - -
21/12:30pm 27.2 - - - - SE 37 44 20 24 1011.8 - -
21/12:20pm 27.1 - - - - SE 37 - 20 - - 1011.8 -
21/12:00pm 27.0 - - - - SE 35 41 19 22 1012.1 - -
21/11:30am 27.0 - - - - SE 37 44 20 24 1012.2 - -
21/11:20am 27.1 - - - - SE 37 - 20 - - 1012.1 -
21/11:00am 27.0 - - - - SE 33 41 18 22 1012.4 - -
21/10:30am 27.2 - - - - SE 35 41 19 22 1012.5 - -
21/10:20am 26.9 - - - - SE 35 - 19 - - 1012.5 -
21/10:00am 27.1 - - - - ESE 32 37 17 20 1012.6 - -
21/09:30am 26.8 - - - - SE 33 39 18 21 1012.4 - -
21/09:20am 27.0 - - - - ESE 33 - 18 - - 1012.3 -
21/09:00am 27.0 - - - - ESE 37 44 20 24 1012.3 - -
21/08:30am 26.8 - - - - ESE 37 41 20 22 1012.1 - -
21/08:20am 27.0 - - - - ESE 37 - 20 - - 1012.0 -
21/08:00am 26.7 - - - - ESE 35 41 19 22 1012.1 - -
21/07:30am 26.0 - - - - E 24 30 13 16 1012.2 - -
21/07:20am 25.6 - - - - E 30 - 16 - - 1012.0 -
21/07:00am 25.5 - - - - E 35 43 19 23 1012.0 - -
21/06:30am 26.3 - - - - SE 30 39 16 21 1011.8 - -
21/06:20am 25.2 - - - - ESE 35 - 19 - - 1011.7 -
21/06:00am 26.5 - - - - ESE 33 37 18 20 1011.5 - -
21/05:30am 26.3 - - - - ESE 33 37 18 20 1011.2 - -
21/05:20am 26.3 - - - - ESE 32 - 17 - - 1011.0 -
21/05:00am 26.3 - - - - ESE 32 35 17 19 1010.9 - -
21/04:30am 26.3 - - - - ESE 30 33 16 18 1010.7 - -
21/04:20am 26.3 - - - - ESE 32 - 17 - - 1010.6 -
21/04:00am 26.4 - - - - ESE 33 37 18 20 1010.8 - -
21/03:30am 26.4 - - - - ESE 33 39 18 21 1010.7 - -
21/03:20am 26.4 - - - - SE 35 - 19 - - 1010.7 -
21/03:00am 26.5 - - - - SE 35 41 19 22 1010.9 - -
21/02:30am 26.6 - - - - ESE 33 37 18 20 1011.2 - -
21/02:20am 26.6 - - - - ESE 33 - 18 - - 1011.1 -
21/02:00am 26.7 - - - - ESE 33 39 18 21 1011.5 - -
21/01:30am 26.7 - - - - ESE 33 39 18 21 1011.9 - -
21/01:20am 26.7 - - - - ESE 33 - 18 - - 1011.9 -
21/01:00am 26.8 - - - - ESE 32 37 17 20 1012.3 - -
21/12:30am 26.8 - - - - ESE 35 43 19 23 1012.6 - -
21/12:20am 26.7 - - - - ESE 35 - 19 - - 1012.7 -
21/12:00am 26.8 - - - - ESE 35 41 19 22 1013.0 - -
 
Date/Time
EST
Temp
°C
App
Temp
°C
Dew
Point
°C
Rel
Hum
%
Delta-T
°C
Wind Press
QNH
hPa
Press
MSL
hPa
Rain since
9am
mm
Dir  Spd
km/h
Gust
km/h
Spd
kts
Gust
kts
20/11:30pm 26.8 - - - - ESE 35 41 19 22 1013.2 - -
20/11:20pm 26.8 - - - - SE 37 - 20 - - 1013.2 -
20/11:00pm 26.8 - - - - SE 37 43 20 23 1013.5 - -
20/10:30pm 26.8 - - - - SE 37 43 20 23 1013.8 - -
20/10:20pm 26.9 - - - - SE 37 - 20 - - 1013.8 -
20/10:00pm 27.0 - - - - SE 35 41 19 22 1013.9 - -
20/09:30pm 26.9 - - - - SE 37 43 20 23 1013.7 - -
20/09:20pm 26.9 - - - - SE 37 - 20 - - 1013.6 -
20/09:00pm 27.0 - - - - SE 39 46 21 25 1013.7 - -
20/08:30pm 27.0 - - - - SE 39 44 21 24 1013.6 - -
20/08:20pm 27.0 - - - - SE 39 - 21 - - 1013.5 -
20/08:00pm 27.0 - - - - SE 39 46 21 25 1013.4 - -
20/07:30pm 27.2 - - - - SE 43 48 23 26 1013.0 - -
20/07:20pm 27.0 - - - - SE 43 - 23 - - 1012.8 -
20/07:00pm 27.1 - - - - SE 39 46 21 25 1012.8 - -
20/06:30pm 26.9 - - - - SE 37 46 20 25 1012.4 - -
20/06:20pm 26.9 - - - - SE 41 - 22 - - 1012.2 -
20/06:00pm 27.2 - - - - SE 41 48 22 26 1012.1 - -
20/05:30pm 27.1 - - - - SE 41 46 22 25 1011.9 - -
20/05:20pm 27.2 - - - - SE 39 - 21 - - 1011.8 -
20/05:00pm 27.2 - - - - SE 39 44 21 24 1011.9 - -
20/04:30pm 27.2 - - - - SE 39 44 21 24 1011.7 - -
20/04:20pm 27.2 - - - - SE 37 - 20 - - 1011.6 -
20/04:00pm 27.2 - - - - SE 39 43 21 23 1011.8 - -
20/03:30pm 27.1 - - - - SE 35 41 19 22 1012.0 - -
20/03:20pm 27.3 - - - - SE 37 - 20 - - 1011.8 -
20/03:00pm 27.1 - - - - ESE 35 39 19 21 1012.1 - -
20/02:30pm 27.1 - - - - SE 35 41 19 22 1012.2 - -
20/02:20pm 27.2 - - - - SE 37 - 20 - - 1012.1 -
20/02:00pm 27.1 - - - - SE 37 41 20 22 1012.3 - -
20/01:30pm 27.0 - - - - SE 37 41 20 22 1012.5 - -
20/01:20pm 27.0 - - - - SE 35 - 19 - - 1012.5 -
20/01:00pm 27.1 - - - - SE 33 39 18 21 1012.8 - -
20/12:30pm 27.0 - - - - ESE 32 35 17 19 1013.1 - -
20/12:20pm 27.2 - - - - ESE 32 - 17 - - 1013.1 -
20/12:00pm 27.1 - - - - ESE 30 35 16 19 1013.4 - -
20/11:30am 27.0 - - - - SE 33 39 18 21 1013.6 - -
20/11:20am 27.0 - - - - SE 33 - 18 - - 1013.5 -
20/11:00am 27.1 - - - - ESE 32 37 17 20 1013.7 - -
20/10:30am 27.1 - - - - ESE 33 37 18 20 1013.8 - -
20/10:20am 27.0 - - - - ESE 33 - 18 - - 1013.7 -
20/10:00am 26.9 - - - - SE 32 35 17 19 1013.8 - -
20/09:30am 26.9 - - - - SE 30 35 16 19 1013.6 - -
20/09:20am 27.0 - - - - ESE 30 - 16 - - 1013.4 -
20/09:00am 26.9 - - - - ESE 32 37 17 20 1013.4 - -
20/08:30am 26.8 - - - - SE 32 37 17 20 1013.1 - -
20/08:20am 26.9 - - - - SE 33 - 18 - - 1013.0 -
20/08:00am 27.0 - - - - SE 35 39 19 21 1013.2 - -
20/07:30am 26.8 - - - - SE 33 39 18 21 1012.9 - -
20/07:20am 26.8 - - - - SE 33 - 18 - - 1012.7 -
20/07:00am 26.8 - - - - ESE 35 39 19 21 1012.5 - -
20/06:30am 26.8 - - - - ESE 35 41 19 22 1012.1 - -
20/06:20am 26.7 - - - - ESE 35 - 19 - - 1012.0 -
20/06:00am 26.7 - - - - ESE 35 39 19 21 1011.9 - -
20/05:30am 26.4 - - - - ESE 39 44 21 24 1011.8 - -
20/05:20am 26.5 - - - - ESE 41 - 22 - - 1011.6 -
20/05:00am 26.4 - - - - ESE 41 48 22 26 1011.4 - -
20/04:30am 26.3 - - - - ESE 39 44 21 24 1011.1 - -
20/04:20am 26.3 - - - - ESE 41 - 22 - - 1010.9 -
20/04:00am 26.2 - - - - SE 39 43 21 23 1011.0 - -
20/03:30am 26.4 - - - - SE 39 44 21 24 1011.0 - -
20/03:20am 26.5 - - - - ESE 39 - 21 - - 1010.8 -
20/03:00am 26.4 - - - - SE 39 44 21 24 1010.8 - -
20/02:30am 26.4 - - - - SE 37 43 20 23 1011.2 - -
20/02:20am 26.6 - - - - SE 37 - 20 - - 1011.2 -
20/02:00am 26.6 - - - - ESE 37 41 20 22 1011.4 - -
20/01:30am 26.6 - - - - ESE 35 39 19 21 1011.5 - -
20/01:20am 26.7 - - - - SE 37 - 20 - - 1011.5 -
20/01:00am 26.7 - - - - SE 35 41 19 22 1011.9 - -
20/12:30am 26.7 - - - - ESE 33 39 18 21 1012.4 - -
20/12:20am 26.6 - - - - SE 33 - 18 - - 1012.3 -
20/12:00am 26.9 - - - - ESE 33 41 18 22 1012.5 - -
 
Date/Time
EST
Temp
°C
App
Temp
°C
Dew
Point
°C
Rel
Hum
%
Delta-T
°C
Wind Press
QNH
hPa
Press
MSL
hPa
Rain since
9am
mm
Dir  Spd
km/h
Gust
km/h
Spd
kts
Gust
kts
19/11:30pm 26.8 - - - - SE 33 39 18 21 1012.8 - -
19/11:20pm 26.9 - - - - ESE 35 - 19 - - 1012.7 -
19/11:00pm 26.9 - - - - SE 35 41 19 22 1012.9 - -
19/10:30pm 26.9 - - - - SE 35 41 19 22 1013.1 - -
19/10:20pm 26.9 - - - - SE 35 - 19 - - 1013.1 -
19/10:00pm 27.0 - - - - SE 35 41 19 22 1013.2 - -
19/09:30pm 26.9 - - - - ESE 37 43 20 23 1013.0 - -
19/09:20pm 26.9 - - - - SE 37 - 20 - - 1012.8 -
19/09:00pm 26.9 - - - - SE 37 43 20 23 1012.8 - -
19/08:30pm 27.1 - - - - ESE 39 43 21 23 1012.7 - -
19/08:20pm 27.0 - - - - SE 37 - 20 - - 1012.5 -
19/08:00pm 26.9 - - - - ESE 37 43 20 23 1012.5 - -
19/07:30pm 27.0 - - - - ESE 37 44 20 24 1012.3 - -
19/07:20pm 27.0 - - - - ESE 37 - 20 - - 1012.2 -
19/07:00pm 27.0 - - - - ESE 37 46 20 25 1012.2 - -
19/06:30pm 26.9 - - - - SE 41 48 22 26 1011.8 - -
19/06:20pm 27.0 - - - - SE 41 - 22 - - 1011.6 -
19/06:00pm 27.0 - - - - SE 39 46 21 25 1011.6 - -
19/05:30pm 27.1 - - - - SE 37 43 20 23 1011.4 - -
19/05:20pm 27.2 - - - - SE 37 - 20 - - 1011.2 -
19/05:00pm 27.3 - - - - SE 39 46 21 25 1011.3 - -
19/04:30pm 27.3 - - - - SE 37 44 20 24 1011.2 - -
19/04:20pm 27.4 - - - - SE 35 - 19 - - 1011.1 -
19/04:00pm 27.3 - - - - SE 37 43 20 23 1011.2 - -
19/03:30pm 27.3 - - - - SE 33 37 18 20 1011.3 - -
19/03:20pm 27.2 - - - - ESE 33 - 18 - - 1011.3 -
19/03:00pm 27.3 - - - - SE 32 35 17 19 1011.6 - -
19/02:30pm 27.3 - - - - SE 32 37 17 20 1011.7 - -
19/02:20pm 27.2 - - - - SE 32 - 17 - - 1011.7 -
19/02:00pm 27.1 - - - - SE 32 37 17 20 1012.2 - -
19/01:30pm 27.2 - - - - ESE 33 37 18 20 1012.3 - -
19/01:20pm 27.1 - - - - ESE 33 - 18 - - 1012.3 -
19/01:00pm 27.1 - - - - ESE 32 35 17 19 1012.6 - -
19/12:30pm 27.1 - - - - ESE 32 37 17 20 1013.0 - -
19/12:20pm 27.1 - - - - ESE 32 - 17 - - 1013.1 -
19/12:00pm 27.2 - - - - ESE 26 30 14 16 1013.3 - -
19/11:30am 27.0 - - - - ESE 28 33 15 18 1013.7 - -
19/11:20am 26.9 - - - - SE 28 - 15 - - 1013.7 -
19/11:00am 26.9 - - - - SE 28 32 15 17 1014.0 - -
19/10:30am 26.9 - - - - ESE 30 35 16 19 1014.1 - -
19/10:20am 26.7 - - - - ESE 28 - 15 - - 1013.9 -
19/10:00am 26.7 - - - - ESE 28 32 15 17 1014.2 - -
19/09:30am 26.7 - - - - ESE 30 33 16 18 1014.2 - -
19/09:20am 26.8 - - - - ESE 30 - 16 - - 1014.0 -
19/09:00am 26.9 - - - - ESE 28 33 15 18 1014.1 - -
19/08:30am 27.0 - - - - ESE 28 32 15 17 1014.0 - -
19/08:20am 26.9 - - - - ESE 28 - 15 - - 1014.0 -
19/08:00am 27.0 - - - - ESE 26 32 14 17 1014.0 - -

Other Formats:

Comma delimited format used in spreadsheet applications
http://www.bom.gov.au/fwo/IDQ60801/IDQ60801.94371.axf

JavaScript Object Notation format (JSON) in row-major order
http://www.bom.gov.au/fwo/IDQ60801/IDQ60801.94371.json